Time;durP1;ratioP1;P1;durP2;ratioP2;P2;SDS_P1;SDS_P2;PMS_P1;PMS_P2;Temp;Humidity;BMP_temperature;BMP_pressure;BME280_temperature;BME280_humidity;BME280_pressure;Samples;Min_cycle;Max_cycle;Signal;HPM_P1;HPM_P2
2023/09/13 00:01:12;;;;;;;;;17.50;16.75;;;;;21.80;88.42;101158.84;5018241;28;45332;-67
2023/09/13 00:03:38;;;;;;;;;14.50;14.50;;;;;21.56;88.31;101112.63;5018881;28;46182;-67
2023/09/13 00:06:03;;;;;;;;;15.00;15.00;;;;;21.67;88.58;101123.56;5019033;28;45787;-67
2023/09/13 00:08:28;;;;;;;;;23.50;21.00;;;;;21.77;87.96;101153.66;5019140;28;45483;-67
2023/09/13 00:11:01;;;;;;;;;17.75;16.50;;;;;21.74;88.45;101134.88;5017461;28;45541;-67
2023/09/13 00:13:27;;;;;;;;;16.50;14.75;;;;;21.83;88.44;101159.50;5018949;28;45453;-67
2023/09/13 00:15:52;;;;;;;;;21.50;19.00;;;;;21.70;88.40;101138.78;5018787;28;45353;-67
2023/09/13 00:18:17;;;;;;;;;17.25;15.75;;;;;21.76;88.71;101149.19;5017963;28;45301;-67
2023/09/13 00:20:43;;;;;;;;;17.75;16.25;;;;;21.76;88.94;101155.50;5018619;28;45516;-67
2023/09/13 00:23:09;;;;;;;;;18.25;18.00;;;;;21.64;89.01;101132.81;5008038;28;47068;-67
2023/09/13 00:25:34;;;;;;;;;21.00;17.75;;;;;21.65;89.26;101133.66;4996737;28;45346;-67
2023/09/13 00:27:59;;;;;;;;;19.25;17.75;;;;;21.78;89.04;101158.97;5018541;28;45475;-67
2023/09/13 00:30:25;;;;;;;;;19.00;16.75;;;;;21.54;88.45;101126.31;5017806;28;45422;-67
2023/09/13 00:32:50;;;;;;;;;18.75;16.50;;;;;21.73;89.01;101147.56;5018680;28;45449;-67
2023/09/13 00:35:15;;;;;;;;;20.50;19.50;;;;;21.76;88.90;101163.63;5005383;28;45416;-67
2023/09/13 00:37:41;;;;;;;;;21.25;18.75;;;;;21.44;88.68;101112.50;5017425;28;45410;-67
2023/09/13 00:40:07;;;;;;;;;19.00;17.50;;;;;21.62;89.07;101137.50;5018438;28;45422;-67
2023/09/13 00:42:33;;;;;;;;;18.75;16.25;;;;;21.64;88.88;101137.38;5000530;28;47416;-67
2023/09/13 00:44:59;;;;;;;;;17.75;17.50;;;;;21.61;89.04;101129.44;5018614;28;45347;-67
2023/09/13 00:47:24;;;;;;;;;19.25;17.00;;;;;21.65;89.02;101148.13;5016957;28;45969;-67
2023/09/13 00:49:50;;;;;;;;;19.00;17.00;;;;;21.68;89.38;101144.31;4999940;28;45743;-67
2023/09/13 00:52:16;;;;;;;;;23.00;18.75;;;;;21.61;88.91;101137.59;5018273;28;45796;-67
2023/09/13 00:54:43;;;;;;;;;20.00;18.50;;;;;21.62;88.41;101139.34;5018306;28;45371;-67
2023/09/13 00:57:10;;;;;;;;;19.75;18.75;;;;;21.64;88.69;101142.81;5018250;28;45746;-67
2023/09/13 00:59:35;;;;;;;;;19.00;16.50;;;;;21.71;88.67;101165.81;5016614;28;45697;-67
2023/09/13 01:02:01;;;;;;;;;18.25;17.25;;;;;21.61;88.78;101140.31;5018088;28;45827;-67
2023/09/13 01:04:27;;;;;;;;;16.00;16.00;;;;;21.63;88.46;101139.25;5018221;28;45463;-67
2023/09/13 01:06:52;;;;;;;;;19.75;17.50;;;;;21.59;88.58;101134.13;5018396;28;45388;-67
2023/09/13 01:09:18;;;;;;;;;17.50;17.50;;;;;21.77;88.64;101151.81;5017951;28;45543;-67
2023/09/13 01:11:44;;;;;;;;;18.25;17.00;;;;;21.78;88.31;101155.38;5017679;28;46361;-67
2023/09/13 01:14:10;;;;;;;;;15.25;14.50;;;;;21.49;87.83;101114.06;5020667;28;45262;-67
2023/09/13 01:16:51;;;;;;;;;16.50;14.75;;;;;21.83;88.08;101174.94;5021485;28;45405;-67
2023/09/13 01:19:44;;;;;;;;;21.25;18.75;;;;;21.81;88.02;101175.03;5019005;28;45320;-67
2023/09/13 01:22:47;;;;;;;;;17.50;13.75;;;;;21.70;87.69;101158.69;5020113;28;45600;-67
2023/09/13 01:25:12;;;;;;;;;17.25;16.75;;;;;21.73;87.75;101171.16;5014120;28;45332;-67
2023/09/13 01:28:09;;;;;;;;;16.00;16.00;;;;;21.70;87.92;101171.38;5016091;28;45281;-67
2023/09/13 01:30:37;;;;;;;;;15.50;15.50;;;;;21.37;87.69;101126.66;5020088;28;45441;-67
2023/09/13 01:33:02;;;;;;;;;18.25;16.25;;;;;21.44;87.91;101138.78;5021379;28;46481;-67
2023/09/13 01:35:28;;;;;;;;;17.25;14.00;;;;;21.63;87.68;101177.28;4993684;28;45434;-67
2023/09/13 01:37:53;;;;;;;;;17.00;14.00;;;;;21.45;88.05;101140.50;5030960;28;45463;-67
2023/09/13 01:40:22;;;;;;;;;17.50;15.75;;;;;21.65;87.88;101180.75;5021019;28;45321;-67
2023/09/13 01:42:49;;;;;;;;;17.75;17.75;;;;;21.45;88.03;101146.81;5021045;28;46340;-67
2023/09/13 01:45:18;;;;;;;;;15.75;15.00;;;;;21.45;87.96;101148.66;5021135;28;45397;-67
2023/09/13 01:47:46;;;;;;;;;16.75;15.25;;;;;21.45;87.62;101152.25;5021630;28;45437;-67
2023/09/13 01:50:12;;;;;;;;;19.25;18.75;;;;;21.49;87.89;101176.53;5017908;28;46298;-67
2023/09/13 01:52:38;;;;;;;;;17.00;16.00;;;;;21.48;88.54;101174.78;5002241;28;47236;-67
2023/09/13 01:55:07;;;;;;;;;22.00;18.00;;;;;21.44;88.26;101174.09;5002886;28;45490;-67
2023/09/13 01:57:33;;;;;;;;;18.25;16.75;;;;;21.43;88.36;101173.25;5003094;28;45461;-67
2023/09/13 01:59:58;;;;;;;;;17.75;16.50;;;;;21.40;88.07;101161.69;5020893;28;45615;-67
2023/09/13 02:02:24;;;;;;;;;15.50;15.50;;;;;21.45;88.14;101175.81;5020921;28;45452;-67
2023/09/13 02:04:49;;;;;;;;;17.00;15.25;;;;;21.44;87.67;101183.09;5019602;28;45423;-67
2023/09/13 02:07:16;;;;;;;;;14.50;14.25;;;;;21.36;87.44;101171.06;5019055;28;45938;-67
2023/09/13 02:09:42;;;;;;;;;15.25;14.25;;;;;21.37;87.27;101168.22;5020720;28;45333;-67
2023/09/13 02:12:12;;;;;;;;;18.75;16.75;;;;;21.40;87.46;101187.03;5020437;28;45496;-67
2023/09/13 02:14:38;;;;;;;;;17.75;17.75;;;;;21.52;87.88;101203.44;5008178;28;45532;-67
2023/09/13 02:17:04;;;;;;;;;18.25;15.50;;;;;21.42;88.07;101184.22;5020729;28;45404;-67
2023/09/13 02:19:29;;;;;;;;;18.75;18.75;;;;;21.53;88.42;101211.47;5020760;28;45437;-67
2023/09/13 02:21:54;;;;;;;;;15.00;14.25;;;;;21.39;88.06;101179.00;5020332;28;45432;-67
2023/09/13 02:24:20;;;;;;;;;17.25;15.00;;;;;21.38;87.76;101169.94;5006116;28;45404;-67
2023/09/13 02:26:45;;;;;;;;;16.50;15.50;;;;;21.63;88.26;101219.84;5015249;28;45357;-67
2023/09/13 02:29:10;;;;;;;;;18.50;18.50;;;;;21.42;87.87;101176.91;5018189;28;45407;-67
2023/09/13 02:31:36;;;;;;;;;18.50;17.50;;;;;21.49;88.14;101192.81;5020487;28;45377;-67
2023/09/13 02:34:02;;;;;;;;;17.75;17.00;;;;;21.59;87.56;101215.63;5020427;28;45534;-67
2023/09/13 02:36:28;;;;;;;;;18.25;17.75;;;;;21.49;87.85;101195.53;5019517;28;45267;-67
2023/09/13 02:38:54;;;;;;;;;17.50;17.25;;;;;21.64;87.68;101221.59;5020120;28;45441;-67
2023/09/13 02:41:19;;;;;;;;;18.25;17.00;;;;;21.45;87.95;101193.00;5019838;28;45502;-67
2023/09/13 02:43:45;;;;;;;;;18.00;17.00;;;;;21.45;87.56;101201.16;5020153;28;45435;-67
2023/09/13 02:46:10;;;;;;;;;20.50;18.00;;;;;21.55;87.52;101214.97;5019091;28;45552;-67
2023/09/13 02:48:36;;;;;;;;;18.25;18.00;;;;;21.54;87.75;101206.94;5019980;28;45401;-67
2023/09/13 02:51:02;;;;;;;;;19.25;18.00;;;;;21.32;87.75;101172.22;5020139;28;45456;-67
2023/09/13 02:53:28;;;;;;;;;17.50;14.75;;;;;21.65;87.78;101229.63;5019878;28;45629;-67
2023/09/13 02:56:03;;;;;;;;;17.00;17.00;;;;;21.48;87.76;101199.22;5020030;28;45254;-67
2023/09/13 02:58:28;;;;;;;;;19.50;15.75;;;;;21.54;87.70;101212.38;5007171;28;45981;-67
2023/09/13 03:00:54;;;;;;;;;13.75;12.25;;;;;21.52;87.80;101209.75;5019818;28;45353;-67
2023/09/13 03:03:19;;;;;;;;;21.00;19.75;;;;;21.45;88.07;101197.53;5020165;28;45330;-67
2023/09/13 03:05:44;;;;;;;;;16.25;14.50;;;;;21.43;88.07;101203.09;5018815;28;45316;-67
2023/09/13 03:08:10;;;;;;;;;13.75;11.25;;;;;21.65;87.48;101228.75;5019949;28;45389;-67
2023/09/13 03:10:37;;;;;;;;;20.00;17.75;;;;;21.51;87.84;101213.44;5019484;28;45993;-67
2023/09/13 03:13:03;;;;;;;;;16.75;15.50;;;;;21.66;87.95;101244.06;5019687;28;45392;-67
2023/09/13 03:15:32;;;;;;;;;15.50;15.25;;;;;21.46;87.38;101208.28;5019864;28;45460;-67
2023/09/13 03:17:57;;;;;;;;;11.75;11.75;;;;;21.43;87.28;101205.81;5019914;28;45843;-67
2023/09/13 03:20:23;;;;;;;;;16.50;15.50;;;;;21.41;87.52;101194.19;5018412;28;45725;-67
2023/09/13 03:22:48;;;;;;;;;11.75;10.50;;;;;21.43;87.76;101200.41;5011831;28;45382;-67
2023/09/13 03:25:14;;;;;;;;;12.00;12.00;;;;;21.55;87.54;101228.56;5012687;28;45331;-67
2023/09/13 03:27:39;;;;;;;;;11.25;10.75;;;;;21.49;86.73;101223.56;5014119;28;45502;-67
2023/09/13 03:30:05;;;;;;;;;12.75;11.25;;;;;21.52;87.24;101231.50;5017288;28;46757;-67
2023/09/13 03:32:31;;;;;;;;;11.25;10.50;;;;;21.50;87.11;101224.41;5019519;28;45318;-67
2023/09/13 03:34:56;;;;;;;;;12.00;11.25;;;;;21.37;86.42;101205.38;5019601;28;45430;-67
2023/09/13 03:37:22;;;;;;;;;8.50;8.25;;;;;21.53;86.50;101232.34;5018336;28;45562;-67
2023/09/13 03:39:47;;;;;;;;;11.00;7.75;;;;;21.40;86.16;101210.56;5019219;28;45350;-67
2023/09/13 03:42:12;;;;;;;;;8.75;8.75;;;;;21.27;85.53;101194.31;5019007;28;45249;-67
2023/09/13 03:44:38;;;;;;;;;8.00;8.00;;;;;21.22;86.02;101197.34;5019598;28;45479;-67
2023/09/13 03:47:04;;;;;;;;;11.50;9.75;;;;;21.19;85.87;101192.13;5019214;28;45352;-67
2023/09/13 03:49:29;;;;;;;;;8.75;8.75;;;;;21.42;85.16;101223.09;5018627;28;45863;-67
2023/09/13 03:51:55;;;;;;;;;8.75;7.50;;;;;21.18;85.80;101190.38;5019118;28;45516;-67
2023/09/13 03:54:20;;;;;;;;;10.00;8.50;;;;;21.21;85.41;101202.88;5019160;28;45557;-67
2023/09/13 03:56:45;;;;;;;;;8.25;7.50;;;;;21.11;85.29;101194.50;5018722;28;45454;-67
2023/09/13 03:59:11;;;;;;;;;13.75;13.00;;;;;21.23;86.00;101219.91;5019083;28;45301;-67
2023/09/13 04:01:36;;;;;;;;;13.50;12.00;;;;;21.19;85.62;101212.97;5018882;28;45488;-67
2023/09/13 04:04:02;;;;;;;;;8.50;8.50;;;;;21.05;85.65;101195.81;5019203;28;45497;-67
2023/09/13 04:06:28;;;;;;;;;10.00;9.75;;;;;21.03;85.76;101186.00;5018938;28;45413;-67
2023/09/13 04:08:53;;;;;;;;;10.00;10.00;;;;;21.09;85.58;101197.31;5018856;28;46231;-67
2023/09/13 04:11:18;;;;;;;;;9.00;7.25;;;;;21.17;85.71;101217.66;5018571;28;45514;-67
2023/09/13 04:13:44;;;;;;;;;12.75;10.75;;;;;21.18;85.85;101225.66;5001076;28;45672;-67
2023/09/13 04:16:13;;;;;;;;;8.50;8.50;;;;;21.09;85.97;101208.16;5019059;28;45505;-67
2023/09/13 04:18:39;;;;;;;;;8.25;8.25;;;;;20.96;85.36;101182.84;5017787;28;45497;-67
2023/09/13 04:21:04;;;;;;;;;7.50;7.50;;;;;21.04;85.81;101187.75;5018869;28;45360;-67
2023/09/13 04:23:29;;;;;;;;;10.25;8.50;;;;;21.09;85.33;101199.16;5006733;28;45419;-67
2023/09/13 04:25:55;;;;;;;;;5.75;5.75;;;;;21.05;85.98;101203.09;5017144;28;45394;-67
2023/09/13 04:28:20;;;;;;;;;9.50;8.00;;;;;21.14;85.54;101209.72;5018782;28;45565;-67
2023/09/13 04:30:46;;;;;;;;;10.50;9.00;;;;;21.01;85.39;101187.97;5017704;28;45433;-67
2023/09/13 04:33:11;;;;;;;;;9.00;8.75;;;;;21.17;86.03;101220.34;5019061;28;45508;-67
2023/09/13 04:35:36;;;;;;;;;8.25;7.75;;;;;21.17;85.32;101228.50;5018483;28;45471;-67
2023/09/13 04:38:02;;;;;;;;;10.50;10.50;;;;;20.96;85.69;101195.56;5017763;28;45517;-67
2023/09/13 04:40:28;;;;;;;;;8.00;8.00;;;;;20.98;85.70;101205.34;5018251;28;45443;-67
2023/09/13 04:43:05;;;;;;;;;12.75;10.00;;;;;21.18;85.78;101241.94;5018485;28;45449;-67
2023/09/13 04:45:33;;;;;;;;;12.50;9.00;;;;;21.00;86.43;101219.69;5005939;28;45563;-67
2023/09/13 04:47:59;;;;;;;;;10.00;8.50;;;;;20.87;86.00;101199.78;5019465;28;45618;-67
2023/09/13 04:50:24;;;;;;;;;9.00;8.75;;;;;21.10;85.87;101237.06;5020867;28;45410;-67
2023/09/13 04:52:50;;;;;;;;;9.25;8.25;;;;;20.99;86.34;101217.94;5021930;28;45360;-67
2023/09/13 04:55:18;;;;;;;;;12.00;10.00;;;;;20.99;85.96;101219.78;5021887;28;45458;-67
2023/09/13 04:57:44;;;;;;;;;7.50;7.50;;;;;21.07;86.01;101231.84;5021621;28;46305;-67
2023/09/13 05:00:11;;;;;;;;;7.00;7.00;;;;;20.85;86.26;101193.59;5021792;28;45328;-67
2023/09/13 05:02:39;;;;;;;;;9.75;9.75;;;;;20.96;86.10;101217.28;5021933;28;45534;-67
2023/09/13 05:05:05;;;;;;;;;9.00;9.00;;;;;20.99;86.33;101217.06;5021999;28;45358;-67
2023/09/13 05:07:30;;;;;;;;;7.75;7.00;;;;;20.97;86.40;101214.44;5021405;28;45468;-67
2023/09/13 05:09:56;;;;;;;;;7.00;6.75;;;;;20.98;86.45;101218.91;5021722;28;45461;-67
2023/09/13 05:12:22;;;;;;;;;10.25;8.25;;;;;20.98;86.38;101221.63;5021578;28;45377;-67
2023/09/13 05:14:47;;;;;;;;;6.25;6.25;;;;;21.10;86.36;101244.34;5021790;28;45354;-67
2023/09/13 05:17:13;;;;;;;;;8.00;7.25;;;;;20.97;85.91;101224.44;5021451;28;46061;-67
2023/09/13 05:19:38;;;;;;;;;8.00;6.50;;;;;20.98;85.98;101232.50;5017611;28;45708;-67
2023/09/13 05:22:04;;;;;;;;;8.50;8.25;;;;;21.00;85.76;101244.09;5020414;28;45294;-67
2023/09/13 05:24:29;;;;;;;;;7.25;7.25;;;;;20.98;85.68;101246.06;5008069;28;45603;-67
2023/09/13 05:26:55;;;;;;;;;12.75;10.75;;;;;21.16;85.57;101281.03;5015943;28;45561;-67
2023/09/13 05:29:21;;;;;;;;;9.00;9.00;;;;;20.94;85.07;101249.06;5008244;28;45267;-67
2023/09/13 05:31:46;;;;;;;;;9.75;9.75;;;;;20.95;85.31;101251.69;5021426;28;45270;-67
2023/09/13 05:34:12;;;;;;;;;9.25;8.25;;;;;20.97;85.74;101260.59;5014518;28;45468;-67
2023/09/13 05:36:37;;;;;;;;;12.25;11.25;;;;;20.86;85.44;101247.72;5014860;28;46276;-67
2023/09/13 05:39:03;;;;;;;;;10.00;9.75;;;;;21.02;86.04;101272.00;5003302;28;46149;-67
2023/09/13 05:41:28;;;;;;;;;12.50;12.50;;;;;21.16;85.80;101297.34;5034389;28;45379;-67
2023/09/13 05:43:54;;;;;;;;;12.50;12.00;;;;;21.02;85.78;101274.72;5021148;28;45435;-67
2023/09/13 05:46:19;;;;;;;;;11.50;10.50;;;;;20.99;85.93;101266.78;5021159;28;45543;-67
2023/09/13 05:48:45;;;;;;;;;13.50;12.00;;;;;20.83;85.07;101253.41;5019814;28;45297;-67
2023/09/13 05:51:10;;;;;;;;;11.75;11.75;;;;;21.02;85.51;101282.84;5020349;28;45673;-67
2023/09/13 05:53:36;;;;;;;;;9.75;9.75;;;;;20.95;85.62;101273.41;5017652;28;45557;-67
2023/09/13 05:56:03;;;;;;;;;10.00;10.00;;;;;;;;4999482;28;48205;-67
2023/09/13 05:58:28;;;;;;;;;12.00;10.00;;;;;20.87;85.67;101264.91;5021089;28;45504;-67
2023/09/13 06:00:55;;;;;;;;;12.25;11.00;;;;;20.99;85.70;101285.78;5019828;28;45578;-67
2023/09/13 06:03:21;;;;;;;;;10.00;10.00;;;;;20.99;85.85;101298.47;5020869;28;45499;-67
2023/09/13 06:05:50;;;;;;;;;8.75;8.75;;;;;20.94;85.65;101287.94;5020719;28;45492;-67
2023/09/13 06:08:19;;;;;;;;;11.50;8.25;;;;;20.94;86.01;101295.22;5014334;28;45702;-67
2023/09/13 06:11:27;;;;;;;;;9.25;8.75;;;;;20.77;85.48;101269.22;5015654;28;45556;-70
2023/09/13 06:14:00;;;;;;;;;11.75;10.75;;;;;20.87;85.84;101286.63;4992441;28;45346;-69
2023/09/13 07:03:16;;;;;;;;;;;;;;;;;;;;;
2023/09/13 07:06:32;;;;;;;;;;;;;;;;;;;;;
2023/09/13 07:16:58;;;;;;;;;;;;;;;;;;;;;
2023/09/13 07:19:29;;;;;;;;;9.25;9.25;;;;;21.19;84.88;101362.28;4800012;29;72811;-68
2023/09/13 07:22:03;;;;;;;;;13.00;13.00;;;;;21.01;85.22;101327.25;4859384;29;45606;-71
2023/09/13 07:24:29;;;;;;;;;12.50;12.50;;;;;21.10;85.42;101336.63;4894759;28;45972;-70
2023/09/13 07:26:55;;;;;;;;;10.75;9.25;;;;;21.25;85.54;101368.16;4999959;28;46268;-69
2023/09/13 07:29:20;;;;;;;;;12.50;12.50;;;;;21.08;84.66;101338.56;5019103;28;45572;-69
2023/09/13 07:31:46;;;;;;;;;14.00;14.00;;;;;21.18;84.39;101352.38;5018749;28;45633;-69
2023/09/13 07:34:20;;;;;;;;;15.25;15.25;;;;;21.20;84.00;101361.28;5001533;28;45497;-69
2023/09/13 07:36:46;;;;;;;;;18.25;17.75;;;;;21.07;84.11;101343.13;4983333;28;46676;-69
2023/09/13 07:39:11;;;;;;;;;18.00;17.75;;;;;21.10;84.70;101353.78;5016371;28;45703;-69
2023/09/13 07:41:43;;;;;;;;;20.50;20.00;;;;;21.13;84.54;101352.69;4994229;28;45500;-69
2023/09/13 07:44:12;;;;;;;;;15.50;15.50;;;;;21.14;84.45;101357.16;5008778;28;46184;-69
2023/09/13 07:46:40;;;;;;;;;13.25;12.00;;;;;21.24;83.31;101379.13;4995907;28;47567;-69
2023/09/13 07:49:06;;;;;;;;;19.00;16.25;;;;;21.31;83.70;101391.31;4997756;28;45557;-69
2023/09/13 07:51:31;;;;;;;;;16.25;15.75;;;;;21.33;84.35;101392.06;4995851;28;45441;-69
2023/09/13 07:54:07;;;;;;;;;20.50;15.25;;;;;21.39;84.34;101398.94;5008534;28;45460;-69
2023/09/13 07:56:39;;;;;;;;;15.00;12.50;;;;;21.36;84.31;101386.44;5001157;28;45572;-69
2023/09/13 07:59:08;;;;;;;;;15.75;14.25;;;;;21.14;84.18;101350.88;5010624;28;45573;-73
2023/09/13 08:01:34;;;;;;;;;14.00;13.50;;;;;21.31;83.29;101375.03;4988451;28;45556;-68
2023/09/13 08:04:07;;;;;;;;;13.50;12.00;;;;;21.48;83.79;101413.78;5008615;28;45729;-70
2023/09/13 08:06:32;;;;;;;;;10.00;9.50;;;;;21.40;83.62;101400.66;5004639;28;45566;-69
2023/09/13 08:09:08;;;;;;;;;11.50;10.25;;;;;21.05;82.99;101358.66;5006480;28;45415;-71
2023/09/13 08:11:33;;;;;;;;;11.75;11.75;;;;;21.32;83.14;101403.03;4992217;28;45454;-73
2023/09/13 08:14:02;;;;;;;;;11.75;10.75;;;;;21.19;83.85;101382.16;4997872;28;46074;-73
2023/09/13 08:16:28;;;;;;;;;16.75;15.75;;;;;21.27;83.57;101393.38;5002887;28;45551;-69
2023/09/13 08:18:53;;;;;;;;;15.50;15.25;;;;;21.22;83.98;101390.09;5007110;28;45707;-69
2023/09/13 08:21:18;;;;;;;;;12.50;11.50;;;;;21.37;84.29;101423.50;4999344;28;45491;-68
2023/09/13 08:23:44;;;;;;;;;14.50;14.50;;;;;21.31;83.89;101401.31;5005228;28;45575;-68
2023/09/13 08:26:11;;;;;;;;;14.25;11.25;;;;;21.48;84.33;101428.22;5000158;28;45452;-69
2023/09/13 08:28:36;;;;;;;;;13.50;12.75;;;;;21.37;84.18;101407.19;5008159;28;45495;-69
2023/09/13 08:31:03;;;;;;;;;12.00;10.50;;;;;21.32;83.85;101403.91;5017686;28;45380;-69
2023/09/13 08:33:28;;;;;;;;;12.50;10.50;;;;;21.36;82.31;101419.03;5003628;28;46451;-69
2023/09/13 08:35:53;;;;;;;;;9.00;9.00;;;;;21.31;82.70;101423.03;4996648;28;46488;-69
2023/09/13 08:38:19;;;;;;;;;8.75;8.50;;;;;21.26;82.76;101418.75;4990372;28;45727;-69
2023/09/13 08:40:46;;;;;;;;;13.00;11.00;;;;;21.46;82.83;101447.28;4996518;28;45580;-69
2023/09/13 08:43:13;;;;;;;;;10.75;10.75;;;;;21.25;82.98;101414.31;5004352;28;45492;-69
2023/09/13 08:45:40;;;;;;;;;13.50;13.00;;;;;21.33;82.78;101421.94;5004108;28;46381;-69
2023/09/13 08:48:07;;;;;;;;;13.00;11.25;;;;;21.22;82.73;101397.38;5003436;28;45764;-69
2023/09/13 08:50:34;;;;;;;;;12.25;11.75;;;;;21.49;83.41;101443.56;4997558;28;45566;-69
2023/09/13 08:53:02;;;;;;;;;13.00;12.75;;;;;21.47;82.63;101442.78;5000087;28;45486;-69
2023/09/13 08:55:31;;;;;;;;;9.75;9.75;;;;;21.57;82.47;101460.22;5010869;28;46441;-69
2023/09/13 08:57:57;;;;;;;;;9.25;9.25;;;;;21.45;82.29;101437.44;5005699;28;45368;-69
2023/09/13 09:03:47;;;;;;;;;14.50;13.50;;;;;21.39;82.80;101417.97;5065485;22;45467;-85
2023/09/13 09:06:20;;;;;;;;;18.00;17.25;;;;;21.58;81.78;101452.91;5041315;28;47538;-84
2023/09/13 09:08:50;;;;;;;;;15.25;14.25;;;;;21.37;81.20;101423.50;5032161;28;45276;-85
2023/09/13 09:11:26;;;;;;;;;17.75;16.25;;;;;21.59;81.51;101462.81;5032894;28;45533;-83
2023/09/13 09:13:57;;;;;;;;;17.75;15.75;;;;;21.34;81.21;101423.69;5038739;28;45335;-83
2023/09/13 09:16:24;;;;;;;;;7.75;7.75;;;;;21.71;82.17;101481.00;5038630;28;46122;-79
2023/09/13 09:18:52;;;;;;;;;11.25;11.25;;;;;21.61;82.13;101460.88;5037392;28;45402;-80
2023/09/13 09:21:19;;;;;;;;;14.00;12.50;;;;;21.69;81.73;101474.81;5028883;28;45583;-82
2023/09/13 09:23:44;;;;;;;;;15.00;14.00;;;;;21.84;81.50;101490.06;5035864;28;45382;-84
2023/09/13 09:26:10;;;;;;;;;13.75;10.75;;;;;21.78;81.92;101478.72;5038391;28;45848;-83
2023/09/13 09:28:36;;;;;;;;;14.00;13.25;;;;;21.81;80.80;101486.69;5016017;28;46095;-84
2023/09/13 09:31:05;;;;;;;;;14.75;14.75;;;;;21.83;81.66;101491.06;5034963;28;45554;-80
2023/09/13 09:33:31;;;;;;;;;15.75;14.75;;;;;21.80;81.67;101488.53;5019264;28;45387;-80
2023/09/13 09:35:59;;;;;;;;;11.75;11.75;;;;;21.74;81.38;101478.06;5038981;28;46458;-80
2023/09/13 09:38:28;;;;;;;;;11.00;10.50;;;;;21.75;81.41;101476.22;5035415;28;46254;-80
2023/09/13 09:41:01;;;;;;;;;14.75;11.75;;;;;21.90;81.23;101498.75;5008858;28;45399;-80
2023/09/13 09:43:26;;;;;;;;;16.00;14.00;;;;;21.80;81.52;101476.78;5040361;28;45967;-80
2023/09/13 09:45:53;;;;;;;;;14.00;14.00;;;;;21.82;81.50;101491.16;5042450;28;46070;-80
2023/09/13 09:48:19;;;;;;;;;12.75;12.75;;;;;21.91;81.60;101506.81;5016037;28;45663;-80
2023/09/13 09:50:47;;;;;;;;;12.25;12.25;;;;;21.93;81.01;101502.13;5022831;28;45375;-80
2023/09/13 09:53:13;;;;;;;;;9.75;9.25;;;;;21.86;81.08;101489.09;5027803;28;46228;-86
2023/09/13 09:55:40;;;;;;;;;11.00;9.75;;;;;21.88;80.42;101490.72;5024200;28;47259;-88
2023/09/13 09:58:06;;;;;;;;;14.50;11.75;;;;;22.01;81.36;101509.78;5023888;28;45719;-86
2023/09/13 10:00:49;;;;;;;;;10.00;10.00;;;;;21.95;80.98;101511.09;5042039;28;45528;-83
2023/09/13 10:03:18;;;;;;;;;10.25;10.25;;;;;21.93;80.04;101504.84;5038082;28;45601;-84
2023/09/13 10:06:10;;;;;;;;;11.25;10.00;;;;;22.07;80.13;101520.25;5024367;28;47316;-81
2023/09/13 10:08:38;;;;;;;;;7.75;7.75;;;;;22.01;80.12;101507.06;5037015;28;45513;-85
2023/09/13 10:11:03;;;;;;;;;11.00;10.00;;;;;22.10;79.87;101514.59;5024618;28;45518;-85
2023/09/13 10:13:47;;;;;;;;;11.00;10.00;;;;;22.08;80.16;101512.94;5027069;28;45500;-87
2023/09/13 10:16:14;;;;;;;;;14.00;11.00;;;;;22.04;80.34;101501.41;5042573;28;46164;-85
2023/09/13 10:18:48;;;;;;;;;11.75;10.25;;;;;22.02;79.94;101489.78;5040570;28;45490;-85
2023/09/13 10:21:23;;;;;;;;;15.00;12.00;;;;;21.94;79.35;101473.13;5034817;28;45410;-85
2023/09/13 10:23:53;;;;;;;;;14.00;11.25;;;;;22.09;79.68;101491.09;5034571;28;45401;-85
2023/09/13 10:26:21;;;;;;;;;9.50;8.25;;;;;21.97;79.75;101475.66;5013975;28;47228;-85
2023/09/13 10:28:51;;;;;;;;;11.00;11.00;;;;;22.01;78.94;101482.59;5021829;28;45786;-85
2023/09/13 10:31:19;;;;;;;;;9.50;8.50;;;;;21.94;78.73;101471.28;5034977;28;45479;-85
2023/09/13 10:33:51;;;;;;;;;10.75;10.75;;;;;22.03;78.63;101486.06;5031465;28;45554;-85
2023/09/13 10:36:40;;;;;;;;;11.50;10.75;;;;;22.28;79.75;101520.63;5022015;28;47432;-83
2023/09/13 10:39:46;;;;;;;;;11.00;10.00;;;;;21.96;79.31;101461.16;5038410;28;45668;-86
2023/09/13 10:42:11;;;;;;;;;11.00;9.50;;;;;22.11;78.26;101486.41;4991747;28;45310;-86
2023/09/13 10:44:38;;;;;;;;;11.00;11.00;;;;;22.01;78.89;101471.72;5024442;28;45534;-85
2023/09/13 10:47:05;;;;;;;;;11.75;11.25;;;;;22.23;79.32;101492.00;5039587;28;46204;-86
2023/09/13 10:49:30;;;;;;;;;10.25;10.25;;;;;22.09;78.37;101463.91;5039390;28;45806;-86
2023/09/13 10:51:56;;;;;;;;;10.75;10.75;;;;;22.07;78.68;101460.44;5022663;28;45803;-86
2023/09/13 10:54:24;;;;;;;;;14.50;11.25;;;;;22.35;78.05;101507.47;5040660;28;45520;-85
2023/09/13 10:56:49;;;;;;;;;11.00;10.00;;;;;22.09;78.09;101465.78;5023795;28;47649;-86
2023/09/13 10:59:18;;;;;;;;;12.25;11.50;;;;;22.42;77.61;101530.56;5023683;28;45704;-86
2023/09/13 11:01:46;;;;;;;;;12.00;12.00;;;;;22.14;76.85;101482.63;5027705;28;45356;-83
2023/09/13 11:04:13;;;;;;;;;8.00;6.00;;;;;22.23;77.47;101497.44;5035601;28;45609;-84
2023/09/13 11:06:41;;;;;;;;;10.50;9.25;;;;;22.33;77.00;101512.16;5040204;28;46136;-84
2023/09/13 11:09:17;;;;;;;;;9.25;9.00;;;;;22.33;77.56;101504.84;5041506;28;45479;-84
2023/09/13 11:11:53;;;;;;;;;11.75;9.00;;;;;22.45;77.63;101524.03;5041585;28;45266;-84
2023/09/13 11:14:27;;;;;;;;;13.25;11.25;;;;;22.36;76.64;101506.50;5031125;28;45553;-83
2023/09/13 11:16:53;;;;;;;;;10.00;10.00;;;;;22.31;76.43;101503.22;5034528;28;46580;-84
2023/09/13 11:19:27;;;;;;;;;10.00;10.00;;;;;22.21;76.21;101479.34;5021938;28;46633;-86
2023/09/13 11:22:03;;;;;;;;;10.00;9.50;;;;;22.45;76.75;101514.00;5029667;28;45517;-83
2023/09/13 11:24:46;;;;;;;;;10.00;9.25;;;;;22.45;77.33;101518.56;5033902;28;45317;-83
2023/09/13 11:27:18;;;;;;;;;7.75;7.75;;;;;22.47;77.27;101505.72;5029850;28;47166;-83
2023/09/13 11:29:51;;;;;;;;;10.00;10.00;;;;;22.58;77.10;101527.63;5038193;28;45372;-83
2023/09/13 11:32:21;;;;;;;;;7.25;7.25;;;;;22.59;77.03;101515.75;5023209;28;45985;-83
2023/09/13 11:34:55;;;;;;;;;8.50;8.00;;;;;22.55;75.41;101509.69;5018603;28;45415;-84
2023/09/13 11:37:23;;;;;;;;;7.75;7.75;;;;;22.49;75.84;101498.34;5038409;28;45467;-83
2023/09/13 11:40:06;;;;;;;;;11.50;7.25;;;;;22.66;76.73;101522.50;5041079;28;45382;-83
2023/09/13 11:42:35;;;;;;;;;8.00;7.00;;;;;22.57;75.90;101512.28;5040217;28;45421;-84
2023/09/13 11:45:03;;;;;;;;;7.50;5.00;;;;;22.63;75.72;101530.88;5023318;28;45590;-84
2023/09/13 11:47:34;;;;;;;;;8.00;6.00;;;;;22.31;75.60;101473.31;5022195;28;48178;-84
2023/09/13 11:49:59;;;;;;;;;7.00;5.25;;;;;22.52;75.51;101499.00;5005791;28;45981;-83
2023/09/13 11:52:25;;;;;;;;;6.50;6.25;;;;;22.51;75.72;101490.94;5028869;28;45397;-83
2023/09/13 11:55:11;;;;;;;;;7.00;7.00;;;;;22.72;75.52;101526.63;5038783;28;45475;-83
2023/09/13 11:57:50;;;;;;;;;5.00;5.00;;;;;22.72;75.65;101518.47;5035584;28;45498;-83
2023/09/13 12:00:19;;;;;;;;;7.75;7.75;;;;;22.67;75.63;101509.75;5020549;28;45598;-83
2023/09/13 12:02:45;;;;;;;;;7.25;6.75;;;;;22.78;75.38;101525.34;5036664;28;45462;-83
2023/09/13 12:05:11;;;;;;;;;10.25;7.25;;;;;22.79;75.35;101521.63;5019785;28;45544;-83
2023/09/13 12:07:36;;;;;;;;;5.50;5.50;;;;;22.79;74.75;101521.63;5034920;28;47119;-83
2023/09/13 12:10:03;;;;;;;;;8.00;6.00;;;;;22.68;75.15;101509.66;5017775;28;45854;-83
2023/09/13 12:12:38;;;;;;;;;8.00;6.00;;;;;22.73;74.91;101517.50;5032025;28;45685;-83
2023/09/13 12:15:05;;;;;;;;;8.00;6.25;;;;;22.75;74.10;101512.81;5037525;28;45475;-83
2023/09/13 12:17:37;;;;;;;;;7.00;5.00;;;;;22.87;74.61;101532.81;5037936;28;45586;-83
2023/09/13 12:20:05;;;;;;;;;6.25;4.00;;;;;22.60;74.29;101484.84;5033207;28;45698;-83
2023/09/13 12:22:37;;;;;;;;;2.00;2.00;;;;;22.86;73.74;101534.69;5037156;28;45394;-84